Portada
METAR-TAF:

METAR-TAF

Aeroports :

Iakutsk, Rússia

latitud: 62-01N, longitud: 129-43E, altitud: 103 m

Observació

L'informe es va fer fa 22 minuts, a les 03:30 UTC
Vent 4 kt del Est
Temperatura 19°C
Humitat 52%
Pressió 1007 hPa
Visibilitat 10 km o més
Núvols disperses a una alçada de 5000 ft, Cumulonimbus.
tempesta

METAR: UEEE 060330Z 10002MPS 9999 TS SCT050CB 19/09 Q1007 R23L/09//60 NOSIG RMK QFE747

Hora: 12:52 (03:52 UTC)

Pronòstic

L'informe es va fer fa 1 hora i 52 minuts, a les 02:00 UTC
Pronòstic vàlid del 06 a les 03 UTC al 07 a les 09 UTC
Vent 6 kt del Est/Nord-Est amb ràfegues de 16 kt
Visibilitat 10 km o més
Núvols disperses a una alçada de 2000 ft, Cumulonimbus.
Cel ennuvolat a una alçada de 7000 ft
Temporalment
l' 06 a les 03 UTC al 06 a les 15 UTC
Vent 31 kt amb direcció variable
Visibilitat: 3200 m
tempesta, pluja

TAF: UEEE 060200Z 0603/0709 07003G08MPS 9999 SCT020CB BKN070 TEMPO 0603/0615 VRB16MPS 3200 -TSRA

Observacions i pronòstics meteorològics de més de 4000 aeroports (METAR i TAF).

Les estacions disponibles són els punts grocs i vermells al mapa.

Posi el ratolí al punt desitjat per veure el nom de l'estació.

Feu clic per veure les observacions i els pronòstics meteorològics.

Per canviar el mapa: feu clic els botons verds amb una creu de color negre per apropar; al botó verd amb un guió per allunyar la imatge; o en les fletxes verdes per a mapes adjacents.


METAR-TAF: